Time;durP1;ratioP1;P1;durP2;ratioP2;P2;SDS_P1;SDS_P2;PMS_P1;PMS_P2;Temp;Humidity;BMP_temperature;BMP_pressure;BME280_temperature;BME280_humidity;BME280_pressure;Samples;Min_cycle;Max_cycle;Signal;HPM_P1;HPM_P2
2022/09/01 00:00:28;;;;;;;4.50;1.70;;;;;;;19.49;29.89;101600.13;5072739;28;20055;-79
2022/09/01 00:02:56;;;;;;;3.15;1.60;;;;;;;19.50;30.04;101596.31;5070995;28;20491;-79
2022/09/01 00:05:24;;;;;;;4.00;1.70;;;;;;;19.51;29.93;101595.28;5075723;28;20063;-79
2022/09/01 00:07:52;;;;;;;3.15;1.60;;;;;;;19.51;29.95;101592.50;5068505;28;20125;-79
2022/09/01 00:10:20;;;;;;;2.97;1.65;;;;;;;19.52;30.01;101597.00;5072028;28;20041;-79
2022/09/01 00:12:48;;;;;;;3.30;1.77;;;;;;;19.52;30.06;101596.13;5069970;28;20111;-79
2022/09/01 00:15:18;;;;;;;3.67;1.70;;;;;;;19.54;30.35;101599.63;5069759;28;20082;-78
2022/09/01 00:17:46;;;;;;;2.90;1.60;;;;;;;19.51;30.79;101589.72;5070583;28;20094;-79
2022/09/01 00:20:14;;;;;;;3.67;1.73;;;;;;;19.53;30.11;101600.66;5071717;28;20087;-79
2022/09/01 00:22:47;;;;;;;3.10;1.70;;;;;;;19.52;30.67;101598.91;5070958;28;20098;-79
2022/09/01 00:25:17;;;;;;;2.95;1.55;;;;;;;19.51;30.17;101603.59;5071494;28;20491;-79
2022/09/01 00:27:46;;;;;;;2.50;1.45;;;;;;;19.51;30.58;101602.72;5074629;28;20514;-79
2022/09/01 00:30:14;;;;;;;3.53;1.75;;;;;;;19.52;30.76;101601.69;5075438;28;20067;-79
2022/09/01 00:32:45;;;;;;;2.45;1.58;;;;;;;19.53;30.78;101611.75;5064795;28;20143;-79
2022/09/01 00:35:13;;;;;;;3.00;1.60;;;;;;;19.50;30.76;101603.78;5065975;28;20044;-79
2022/09/01 00:37:41;;;;;;;2.40;1.60;;;;;;;19.50;30.26;101606.53;5058816;28;20056;-79
2022/09/01 00:40:12;;;;;;;2.60;1.60;;;;;;;19.50;30.71;101607.41;5072296;28;21056;-79
2022/09/01 00:42:43;;;;;;;2.80;1.60;;;;;;;19.49;30.72;101604.81;5063062;28;20056;-79
2022/09/01 00:45:12;;;;;;;3.50;1.80;;;;;;;19.48;30.30;101598.38;5071985;28;20076;-79
2022/09/01 00:47:40;;;;;;;3.35;1.55;;;;;;;19.47;30.90;101601.34;5074937;28;20155;-80
2022/09/01 00:50:12;;;;;;;3.17;1.70;;;;;;;19.48;30.33;101594.75;5088588;28;20067;-80
2022/09/01 00:52:44;;;;;;;4.18;1.60;;;;;;;19.44;30.99;101588.69;5074517;28;20040;-79
2022/09/01 00:55:16;;;;;;;2.72;1.65;;;;;;;19.46;31.03;101599.63;5069533;28;20041;-79
2022/09/01 00:57:45;;;;;;;3.53;1.73;;;;;;;19.45;30.78;101595.13;5075053;28;20032;-79
2022/09/01 01:00:19;;;;;;;3.00;1.70;;;;;;;19.47;31.21;101595.78;5068098;28;20131;-79
2022/09/01 01:02:54;;;;;;;3.28;1.67;;;;;;;19.45;31.28;101595.13;5065875;28;20057;-80
2022/09/01 01:05:31;;;;;;;3.00;1.70;;;;;;;19.45;31.05;101586.78;5067158;28;20057;-79
2022/09/01 01:08:01;;;;;;;2.75;1.58;;;;;;;19.42;31.06;101592.69;5073794;28;20049;-79
2022/09/01 01:10:34;;;;;;;3.58;1.63;;;;;;;19.43;31.21;101597.19;5075860;28;20045;-80
2022/09/01 01:13:07;;;;;;;3.72;1.92;;;;;;;19.41;31.10;101586.25;5061553;28;20041;-79
2022/09/01 01:15:36;;;;;;;3.15;1.52;;;;;;;19.38;30.88;101585.75;5074816;28;20049;-79
2022/09/01 01:18:04;;;;;;;3.85;1.75;;;;;;;19.38;31.06;101591.31;5074249;28;20053;-79
2022/09/01 01:23:28;;;;;;;4.40;1.88;;;;;;;19.37;31.85;101589.56;5064047;28;20036;-79
2022/09/01 01:25:59;;;;;;;3.95;1.60;;;;;;;19.36;31.23;101585.91;5072223;28;20075;-79
2022/09/01 01:28:31;;;;;;;2.70;1.73;;;;;;;19.32;31.63;101583.66;5075523;28;20048;-79
2022/09/01 01:31:05;;;;;;;3.20;1.70;;;;;;;19.31;31.21;101590.25;5073816;28;20443;-80
2022/09/01 01:33:39;;;;;;;;;;;;;;;19.00;31.65;101593.69;5072744;28;20102;-80
2022/09/01 01:36:12;;;;;;;3.25;1.73;;;;;;;19.24;31.71;101590.94;5073728;28;19920;-79
2022/09/01 01:38:42;;;;;;;3.83;1.70;;;;;;;19.26;31.61;101593.56;5064847;28;20053;-80
2022/09/01 01:41:12;;;;;;;3.53;1.67;;;;;;;19.27;31.41;101589.75;5078747;28;20085;-79
2022/09/01 01:43:41;;;;;;;2.80;1.60;;;;;;;19.23;31.80;101602.22;5078809;28;20040;-80
2022/09/01 01:46:11;;;;;;;3.83;1.80;;;;;;;19.23;31.74;101603.06;5067966;28;20079;-79
2022/09/01 01:48:42;;;;;;;3.20;1.80;;;;;;;19.23;32.04;101605.00;5076882;28;20546;-78
2022/09/01 01:51:12;;;;;;;3.60;1.90;;;;;;;19.20;32.07;101608.09;5071938;28;20043;-79
2022/09/01 01:53:42;;;;;;;2.90;1.70;;;;;;;19.20;31.77;101605.31;5071335;28;20052;-79
2022/09/01 01:56:12;;;;;;;3.28;1.88;;;;;;;19.19;32.08;101609.13;5072783;28;20418;-79
2022/09/01 01:58:40;;;;;;;3.60;1.60;;;;;;;19.16;31.78;101606.69;5063921;28;20041;-79
2022/09/01 02:01:11;;;;;;;3.25;1.70;;;;;;;19.14;31.66;101604.06;5066548;28;20098;-79
2022/09/01 02:03:40;;;;;;;2.97;1.80;;;;;;;19.14;31.78;101612.41;5078296;28;20135;-78
2022/09/01 02:06:10;;;;;;;3.53;1.88;;;;;;;19.14;32.10;101608.75;5073344;28;20431;-79
2022/09/01 02:08:40;;;;;;;3.30;2.00;;;;;;;19.11;31.86;101600.81;5073701;28;20036;-79
2022/09/01 02:11:09;;;;;;;3.28;1.80;;;;;;;19.09;31.74;101603.75;5069971;28;20072;-79
2022/09/01 02:13:39;;;;;;;3.20;1.67;;;;;;;19.09;31.77;101600.09;5071512;28;20045;-79
2022/09/01 02:16:11;;;;;;;2.92;1.80;;;;;;;19.06;31.65;101600.44;5063815;28;20044;-79
2022/09/01 02:18:47;;;;;;;2.80;1.85;;;;;;;19.05;31.79;101612.59;5073445;28;20499;-79
2022/09/01 02:21:19;;;;;;;2.90;1.98;;;;;;;19.02;31.89;101601.84;5072019;28;20037;-78
2022/09/01 02:23:49;;;;;;;3.10;1.88;;;;;;;18.96;32.18;101606.16;5071492;28;20044;-79
2022/09/01 02:26:17;;;;;;;3.13;1.88;;;;;;;18.96;31.99;101610.84;5072891;28;20820;-78
2022/09/01 02:28:50;;;;;;;2.88;1.90;;;;;;;18.96;32.29;101605.31;5070574;28;20800;-78
2022/09/01 02:31:26;;;;;;;2.75;1.80;;;;;;;18.92;32.09;101604.75;5064523;28;20044;-79
2022/09/01 02:33:56;;;;;;;2.90;1.75;;;;;;;18.92;32.64;101606.66;5071140;28;20147;-79
2022/09/01 02:36:25;;;;;;;2.90;1.90;;;;;;;18.91;32.20;101605.78;5071102;28;20131;-79
2022/09/01 02:38:54;;;;;;;3.15;1.95;;;;;;;18.89;32.72;101596.78;5084170;28;20041;-79
2022/09/01 02:41:33;;;;;;;3.75;2.40;;;;;;;18.86;32.48;101599.91;5070952;28;20421;-79
2022/09/01 02:44:10;;;;;;;3.50;2.13;;;;;;;18.86;32.71;101600.78;5077403;28;20040;-79
2022/09/01 02:46:40;;;;;;;4.43;2.33;;;;;;;18.82;32.33;101591.03;5081129;28;20055;-79
2022/09/01 02:49:14;;;;;;;4.00;2.03;;;;;;;18.80;32.83;101598.66;5067227;28;20045;-79
2022/09/01 02:51:43;;;;;;;3.47;2.10;;;;;;;18.78;32.54;101598.00;5065251;28;20124;-79
2022/09/01 02:54:12;;;;;;;3.88;2.40;;;;;;;18.74;32.50;101593.81;5068481;28;20052;-79
2022/09/01 02:56:41;;;;;;;4.82;2.53;;;;;;;18.72;32.54;101595.88;5069888;28;20072;-79
2022/09/01 02:59:11;;;;;;;5.15;2.53;;;;;;;18.72;32.67;101592.25;5075223;28;20435;-79
2022/09/01 03:01:40;;;;;;;4.57;2.60;;;;;;;18.67;32.69;101597.44;5070748;28;20043;-79
2022/09/01 03:04:09;;;;;;;4.28;2.70;;;;;;;18.66;32.51;101592.91;5079107;28;20053;-79
2022/09/01 03:06:38;;;;;;;4.57;2.40;;;;;;;18.64;32.92;101590.31;5061658;28;20037;-79
2022/09/01 03:09:08;;;;;;;5.53;2.40;;;;;;;18.64;32.59;101595.84;5066514;28;20048;-79
2022/09/01 03:11:40;;;;;;;5.37;2.43;;;;;;;18.60;32.71;101597.25;5061551;28;20472;-78
2022/09/01 03:14:11;;;;;;;4.03;2.22;;;;;;;18.59;32.89;101591.88;5064354;28;20295;-79
2022/09/01 03:16:40;;;;;;;3.78;2.30;;;;;;;18.58;32.89;101591.00;5070552;28;20040;-79
2022/09/01 03:19:10;;;;;;;3.72;2.17;;;;;;;18.57;33.39;101597.56;5070809;28;20102;-79
2022/09/01 03:21:42;;;;;;;3.78;2.30;;;;;;;18.55;33.04;101596.91;5064419;28;20055;-80
2022/09/01 03:24:16;;;;;;;3.67;2.03;;;;;;;18.56;33.69;101598.59;5069363;28;20097;-79
2022/09/01 03:26:48;;;;;;;4.93;2.30;;;;;;;18.54;33.52;101594.28;5078445;28;20075;-79
2022/09/01 03:29:20;;;;;;;4.15;2.15;;;;;;;18.51;33.59;101604.66;5068834;28;20040;-80
2022/09/01 03:31:48;;;;;;;4.22;2.00;;;;;;;18.49;33.33;101600.31;5069464;28;20487;-79
2022/09/01 03:34:19;;;;;;;3.53;1.98;;;;;;;18.48;33.66;101602.22;5069005;28;20075;-79
2022/09/01 03:36:50;;;;;;;3.28;2.13;;;;;;;18.44;33.32;101598.03;5076524;28;20403;-79
2022/09/01 03:39:25;;;;;;;4.40;2.15;;;;;;;18.44;33.37;101599.94;5058413;28;20098;-79
2022/09/01 03:41:54;;;;;;;3.28;1.85;;;;;;;18.44;33.33;101597.16;5070526;28;20068;-79
2022/09/01 03:44:23;;;;;;;3.63;2.00;;;;;;;18.44;33.25;101594.38;5069811;28;20483;-79
2022/09/01 03:46:51;;;;;;;4.35;1.90;;;;;;;18.39;33.67;101594.03;5066047;28;20043;-79
2022/09/01 03:49:26;;;;;;;3.88;2.00;;;;;;;18.37;33.22;101596.97;5064963;28;20503;-79
2022/09/01 03:51:56;;;;;;;2.97;1.77;;;;;;;18.34;33.72;101590.88;5066205;28;20044;-78
2022/09/01 03:54:29;;;;;;;3.83;1.75;;;;;;;18.30;33.22;101590.38;5065985;28;20074;-78
2022/09/01 03:56:59;;;;;;;2.90;1.80;;;;;;;18.28;33.33;101583.25;5076617;28;20135;-78
2022/09/01 03:59:30;;;;;;;3.30;1.70;;;;;;;18.26;33.73;101579.78;5070274;28;20046;-78
2022/09/01 04:01:58;;;;;;;3.00;1.80;;;;;;;18.23;33.28;101572.66;5060242;28;20036;-78
2022/09/01 04:04:28;;;;;;;3.47;1.80;;;;;;;18.22;33.64;101582.03;5062615;28;20052;-78
2022/09/01 04:06:56;;;;;;;3.03;1.70;;;;;;;18.21;33.64;101574.75;5075355;28;20040;-78
2022/09/01 04:09:24;;;;;;;5.05;1.83;;;;;;;18.19;33.36;101571.25;5069458;28;20502;-79
2022/09/01 04:11:52;;;;;;;2.90;1.70;;;;;;;18.19;33.43;101587.88;5069920;28;20032;-78
2022/09/01 04:14:26;;;;;;;3.17;1.63;;;;;;;18.18;33.90;101579.75;5068048;28;20127;-78
2022/09/01 04:19:57;;;;;;;3.20;1.88;;;;;;;18.13;33.71;101581.13;5066928;28;20094;-78
2022/09/01 04:22:30;;;;;;;3.35;1.70;;;;;;;18.11;33.55;101574.88;5065627;28;20086;-78
2022/09/01 04:24:59;;;;;;;3.30;1.95;;;;;;;18.09;33.51;101582.47;5067835;28;20043;-77
2022/09/01 04:27:27;;;;;;;3.30;1.80;;;;;;;18.08;33.34;101585.41;5070721;28;20037;-77
2022/09/01 04:29:56;;;;;;;2.83;1.85;;;;;;;18.05;33.87;101578.31;5067406;28;20048;-77
2022/09/01 04:32:29;;;;;;;4.20;2.22;;;;;;;18.06;33.77;101579.19;5068473;28;20035;-77
2022/09/01 04:35:01;;;;;;;4.03;1.98;;;;;;;18.00;33.62;101580.69;5068564;28;20094;-78
2022/09/01 04:37:31;;;;;;;3.58;2.13;;;;;;;17.96;34.08;101579.31;5072322;28;20501;-78
2022/09/01 04:40:02;;;;;;;;;;;;;;;17.68;33.86;101580.47;5056169;28;20091;-78
2022/09/01 04:42:31;;;;;;;2.65;1.60;;;;;;;17.90;34.06;101579.06;5071180;28;19920;-78
2022/09/01 04:45:02;;;;;;;5.07;1.90;;;;;;;17.93;34.16;101581.53;5069182;28;20041;-79
2022/09/01 04:47:44;;;;;;;4.43;2.00;;;;;;;17.92;33.63;101585.31;5059457;28;20056;-79
2022/09/01 04:50:16;;;;;;;3.85;1.73;;;;;;;17.89;33.54;101577.38;5068314;28;20127;-79
2022/09/01 04:53:05;;;;;;;3.10;1.90;;;;;;;17.87;34.20;101583.06;5068740;28;20220;-79
2022/09/01 04:55:46;;;;;;;3.33;2.15;;;;;;;17.84;33.77;101579.75;5058778;28;20702;-79
2022/09/01 04:58:20;;;;;;;3.35;2.03;;;;;;;17.84;34.22;101583.38;5073258;28;20059;-78
2022/09/01 05:00:51;;;;;;;4.03;2.00;;;;;;;17.85;34.10;101582.34;5085651;28;20055;-79
2022/09/01 05:03:23;;;;;;;3.90;1.90;;;;;;;17.84;33.95;101588.06;5069221;28;20045;-78
2022/09/01 05:06:16;;;;;;;3.70;2.13;;;;;;;17.85;34.56;101593.44;5073429;28;20055;-79
2022/09/01 05:08:50;;;;;;;3.85;1.92;;;;;;;17.83;34.51;101589.06;5076367;28;20542;-78
2022/09/01 05:11:37;;;;;;;4.05;2.17;;;;;;;17.84;33.97;101591.69;5089150;28;20048;-78
2022/09/01 05:14:18;;;;;;;3.22;2.00;;;;;;;17.83;34.59;101587.19;5070792;28;20045;-79
2022/09/01 05:16:47;;;;;;;4.35;2.35;;;;;;;17.84;34.32;101588.91;5070494;28;20049;-78
2022/09/01 05:19:19;;;;;;;4.80;2.05;;;;;;;17.85;34.22;101590.66;5077384;28;20105;-79
2022/09/01 05:21:49;;;;;;;3.60;2.28;;;;;;;17.85;34.33;101587.03;5088640;28;20052;-77
2022/09/01 05:24:20;;;;;;;3.67;2.08;;;;;;;17.86;34.55;101589.63;5081063;28;20048;-79
2022/09/01 05:26:49;;;;;;;4.25;1.98;;;;;;;17.86;34.06;101591.53;5083703;28;20411;-79
2022/09/01 05:29:17;;;;;;;3.75;1.80;;;;;;;17.87;34.21;101593.28;5068637;28;20048;-78
2022/09/01 05:31:49;;;;;;;3.67;2.05;;;;;;;17.88;34.07;101590.34;5073045;28;20247;-79
2022/09/01 05:34:25;;;;;;;3.90;1.98;;;;;;;17.88;34.49;101587.56;5083435;28;20051;-79
2022/09/01 05:36:58;;;;;;;3.05;1.73;;;;;;;17.91;34.29;101592.75;5093704;28;20040;-78
2022/09/01 05:39:27;;;;;;;4.45;1.90;;;;;;;17.88;34.60;101597.78;5080693;28;20471;-78
2022/09/01 05:41:56;;;;;;;3.35;1.88;;;;;;;17.91;34.75;101601.06;5074057;28;20036;-79
2022/09/01 05:44:25;;;;;;;3.10;1.83;;;;;;;17.91;34.51;101595.53;5085971;28;20115;-78
2022/09/01 05:46:58;;;;;;;4.70;1.85;;;;;;;17.93;34.43;101595.38;5092087;28;20036;-79
2022/09/01 05:49:31;;;;;;;4.13;1.88;;;;;;;17.94;34.80;101595.22;5092384;28;20441;-78
2022/09/01 05:52:03;;;;;;;3.70;1.90;;;;;;;17.95;34.36;101607.16;5084239;28;20045;-79
2022/09/01 05:54:33;;;;;;;2.92;1.80;;;;;;;17.97;34.38;101605.97;5072439;28;20507;-79
2022/09/01 05:57:03;;;;;;;4.82;2.00;;;;;;;17.99;34.64;101605.78;5065694;28;20040;-79
2022/09/01 05:59:52;;;;;;;5.57;2.03;;;;;;;17.98;34.96;101604.91;5079012;28;20506;-79
2022/09/01 06:02:25;;;;;;;3.85;1.92;;;;;;;17.99;34.88;101603.00;5073282;28;20044;-78
2022/09/01 06:04:58;;;;;;;2.50;1.60;;;;;;;18.01;34.25;101604.59;5091969;28;20109;-79
2022/09/01 06:07:31;;;;;;;3.67;1.90;;;;;;;18.05;34.83;101611.56;5077018;28;20134;-78
2022/09/01 06:10:01;;;;;;;3.45;1.83;;;;;;;18.07;34.22;101603.06;5082646;28;20040;-78
2022/09/01 06:12:29;;;;;;;2.70;1.52;;;;;;;18.08;34.34;101608.44;5072107;28;20127;-79
2022/09/01 06:14:58;;;;;;;3.05;1.60;;;;;;;18.10;34.70;101603.59;5072030;28;20048;-79
2022/09/01 06:17:29;;;;;;;3.88;1.88;;;;;;;18.13;34.28;101608.81;5075105;28;20052;-78
2022/09/01 06:20:09;;;;;;;3.17;1.83;;;;;;;18.17;34.04;101611.25;5070741;28;20600;-78
2022/09/01 06:22:40;;;;;;;3.28;1.45;;;;;;;18.17;34.06;101614.00;5076137;28;20041;-78
2022/09/01 06:25:10;;;;;;;4.00;1.63;;;;;;;18.20;34.24;101610.94;5072199;28;20049;-78
2022/09/01 06:27:43;;;;;;;2.88;1.35;;;;;;;18.19;34.49;101611.97;5071301;28;20575;-79
2022/09/01 06:30:16;;;;;;;2.42;1.30;;;;;;;18.24;34.13;101618.72;5081334;28;20110;-78
2022/09/01 06:33:08;;;;;;;2.58;1.40;;;;;;;18.24;33.98;101610.41;5063446;28;20047;-78
2022/09/01 06:35:39;;;;;;;2.95;1.42;;;;;;;18.31;34.08;101608.69;5072214;28;20135;-79
2022/09/01 06:38:09;;;;;;;2.28;1.20;;;;;;;18.35;34.15;101612.03;5085499;28;20044;-79
2022/09/01 06:40:41;;;;;;;3.28;1.55;;;;;;;18.36;34.29;101611.00;5084711;28;20117;-79
2022/09/01 06:43:12;;;;;;;4.30;1.80;;;;;;;18.40;33.87;101615.16;5077592;28;20128;-77
2022/09/01 06:45:48;;;;;;;3.40;1.40;;;;;;;18.44;33.65;101617.44;5082072;28;20491;-77
2022/09/01 06:48:18;;;;;;;2.67;1.70;;;;;;;18.47;34.17;101617.09;5057536;28;20044;-78
2022/09/01 06:50:48;;;;;;;2.83;1.38;;;;;;;18.54;34.19;101619.25;5082142;28;20055;-73
2022/09/01 06:53:36;;;;;;;3.13;1.63;;;;;;;18.54;34.13;101613.69;5058954;28;20033;-73
2022/09/01 06:56:12;;;;;;;3.13;1.50;;;;;;;18.61;34.41;101610.06;5070670;28;21464;-73
2022/09/01 06:58:47;;;;;;;3.00;1.50;;;;;;;18.69;34.32;101621.19;5063752;28;20041;-73
2022/09/01 07:01:18;;;;;;;2.20;1.40;;;;;;;18.80;34.27;101620.84;5063917;28;20041;-72
2022/09/01 07:03:49;;;;;;;2.47;1.40;;;;;;;18.93;34.41;101625.91;5057491;28;20065;-71
2022/09/01 07:06:31;;;;;;;3.50;1.50;;;;;;;19.10;34.38;101629.59;5062120;28;20044;-71
2022/09/01 07:09:31;;;;;;;4.10;1.60;;;;;;;19.33;34.35;101613.16;5062882;28;20064;-71
2022/09/01 07:12:46;;;;;;;2.20;1.48;;;;;;;19.65;33.52;101624.22;5051735;28;20492;-71
2022/09/01 07:15:38;;;;;;;3.15;1.33;;;;;;;19.92;33.20;101625.78;5067318;28;20041;-71
2022/09/01 07:18:30;;;;;;;3.63;1.48;;;;;;;20.20;33.49;101623.47;5056571;28;20093;-71
2022/09/01 07:21:01;;;;;;;3.20;1.02;;;;;;;20.45;33.13;101622.28;5069059;28;20040;-72
2022/09/01 07:23:51;;;;;;;2.25;1.33;;;;;;;20.76;32.90;101625.13;5058687;28;20090;-72
2022/09/01 07:26:52;;;;;;;1.90;1.30;;;;;;;21.03;32.77;101620.94;5069111;28;20037;-72
2022/09/01 07:29:24;;;;;;;3.60;1.30;;;;;;;21.32;32.44;101628.59;5065190;28;20128;-72
2022/09/01 07:31:55;;;;;;;2.85;1.40;;;;;;;21.56;32.13;101625.59;5065382;28;20131;-72
2022/09/01 07:34:45;;;;;;;3.75;1.50;;;;;;;21.80;31.40;101616.13;5074260;28;20037;-72
2022/09/01 07:37:18;;;;;;;3.08;1.30;;;;;;;22.02;31.27;101614.34;5062390;28;20040;-73
2022/09/01 07:40:11;;;;;;;3.03;1.20;;;;;;;22.27;30.27;101618.56;5059008;28;20040;-72
2022/09/01 07:43:23;;;;;;;3.75;1.30;;;;;;;22.48;30.45;101618.66;5063629;28;20147;-71
2022/09/01 07:46:15;;;;;;;2.60;1.40;;;;;;;22.65;30.14;101616.53;5060799;28;20198;-71
2022/09/01 07:49:05;;;;;;;2.33;1.30;;;;;;;22.82;30.17;101625.53;5058475;28;20033;-72
2022/09/01 07:51:54;;;;;;;2.70;1.30;;;;;;;22.96;29.67;101622.72;5058763;28;20041;-70
2022/09/01 07:54:24;;;;;;;2.70;1.20;;;;;;;23.10;29.21;101620.91;5068522;28;20102;-85
2022/09/01 07:56:54;;;;;;;2.17;1.02;;;;;;;23.28;28.72;101614.91;5073675;28;20063;-87
2022/09/01 07:59:25;;;;;;;1.80;1.13;;;;;;;23.37;28.94;101614.56;5072064;28;20429;-88
2022/09/01 08:02:00;;;;;;;4.82;1.40;;;;;;;23.58;28.48;101621.22;5068756;28;20614;-85
2022/09/01 08:04:30;;;;;;;2.28;1.40;;;;;;;23.76;27.73;101630.84;5069911;28;20048;-85
2022/09/01 08:06:59;;;;;;;2.30;1.40;;;;;;;23.95;27.49;101626.47;5070769;28;20048;-86
2022/09/01 08:09:29;;;;;;;3.50;1.33;;;;;;;24.13;27.03;101620.34;5073026;28;20433;-85
2022/09/01 08:12:08;;;;;;;3.03;1.35;;;;;;;24.30;24.83;101621.75;5064100;28;20044;-86
2022/09/01 08:14:45;;;;;;;2.20;1.23;;;;;;;24.40;25.91;101624.19;5068169;28;20033;-84
2022/09/01 08:17:13;;;;;;;1.77;1.17;;;;;;;24.56;25.45;101623.00;5072225;28;20479;-84
2022/09/01 08:20:08;;;;;;;2.30;1.05;;;;;;;24.66;25.54;101629.91;5079639;28;20043;-85
2022/09/01 08:22:58;;;;;;;2.88;1.20;;;;;;;24.76;25.62;101618.31;5075423;28;20045;-83
2022/09/01 08:25:32;;;;;;;2.58;1.20;;;;;;;24.86;24.82;101619.66;5084555;28;20043;-82
2022/09/01 08:28:03;;;;;;;2.25;1.20;;;;;;;24.96;24.23;101622.09;5069193;28;20045;-87
2022/09/01 08:30:33;;;;;;;4.30;1.27;;;;;;;25.01;24.00;101627.03;5074220;28;20518;-86
2022/09/01 08:33:02;;;;;;;1.95;1.17;;;;;;;25.05;23.90;101618.03;5068969;28;20040;-84
2022/09/01 08:35:43;;;;;;;2.47;1.05;;;;;;;25.11;23.56;101621.91;5069389;28;20052;-82
2022/09/01 08:38:12;;;;;;;2.35;1.02;;;;;;;25.17;23.55;101613.50;5071257;28;20087;-83
2022/09/01 08:40:43;;;;;;;2.42;1.10;;;;;;;25.22;23.19;101615.69;5069062;28;20051;-86
2022/09/01 08:43:24;;;;;;;2.85;1.00;;;;;;;25.28;21.97;101617.63;5074202;28;20067;-85
2022/09/01 08:45:57;;;;;;;4.35;1.40;;;;;;;25.24;22.69;101622.78;5070655;28;20449;-84
2022/09/01 08:48:31;;;;;;;2.70;1.20;;;;;;;25.26;22.51;101612.22;5067422;28;20064;-83
2022/09/01 08:51:24;;;;;;;2.53;0.88;;;;;;;25.29;23.02;101616.56;5067921;28;20072;-83
2022/09/01 08:54:06;;;;;;;2.70;1.00;;;;;;;25.30;21.94;101615.47;5069104;28;20052;-84
2022/09/01 08:56:36;;;;;;;2.20;1.13;;;;;;;25.30;22.19;101615.47;5074434;28;20044;-83
2022/09/01 08:59:09;;;;;;;1.40;1.00;;;;;;;25.35;21.65;101610.09;5067880;28;20056;-84
2022/09/01 09:02:06;;;;;;;2.13;1.10;;;;;;;25.36;20.80;101609.00;5069956;28;20468;-82
2022/09/01 09:04:53;;;;;;;1.65;0.90;;;;;;;25.39;20.77;101602.94;5079732;28;20051;-82
2022/09/01 09:07:30;;;;;;;2.42;0.80;;;;;;;25.41;20.06;101609.22;5065431;28;20044;-84
2022/09/01 09:10:06;;;;;;;1.98;1.00;;;;;;;25.47;20.53;101610.31;5076507;28;20048;-85
2022/09/01 09:12:50;;;;;;;1.85;0.93;;;;;;;25.48;18.89;101600.81;5074863;28;20049;-82
2022/09/01 09:15:30;;;;;;;1.60;0.80;;;;;;;25.50;19.31;101607.06;5073916;28;20097;-79
2022/09/01 09:18:07;;;;;;;2.10;0.80;;;;;;;25.49;19.64;101599.72;5065070;28;20040;-82
2022/09/01 09:20:57;;;;;;;2.05;1.00;;;;;;;25.48;19.93;101598.88;5086738;28;20503;-82
2022/09/01 09:23:30;;;;;;;1.40;0.90;;;;;;;25.49;19.45;101603.41;5077916;28;20090;-81
2022/09/01 09:25:58;;;;;;;1.73;0.85;;;;;;;25.46;19.05;101598.25;5074067;28;20044;-81
2022/09/01 09:28:26;;;;;;;2.17;0.80;;;;;;;25.52;19.51;101599.34;5069902;28;20043;-82
2022/09/01 09:31:28;;;;;;;1.02;0.70;;;;;;;25.55;19.16;101585.78;5064495;28;20094;-82
2022/09/01 09:33:57;;;;;;;2.05;0.95;;;;;;;25.56;19.77;101587.47;5074710;28;20040;-82
2022/09/01 09:36:31;;;;;;;1.05;0.75;;;;;;;25.60;17.61;101582.31;5081270;28;20618;-81
2022/09/01 09:39:12;;;;;;;1.80;1.00;;;;;;;25.62;17.86;101581.03;5063444;28;20415;-84
2022/09/01 09:41:41;;;;;;;2.08;0.80;;;;;;;25.66;19.14;101583.38;5084258;28;20040;-86
2022/09/01 09:44:25;;;;;;;1.50;0.80;;;;;;;25.69;17.31;101581.00;5067956;28;20045;-83
2022/09/01 09:46:56;;;;;;;1.45;0.93;;;;;;;25.72;19.45;101574.94;5074928;28;20123;-84
2022/09/01 09:49:26;;;;;;;2.13;0.70;;;;;;;25.76;19.08;101567.84;5084085;28;20051;-83
2022/09/01 09:52:16;;;;;;;1.60;0.60;;;;;;;25.84;18.23;101580.78;5078096;28;20083;-82
2022/09/01 09:55:02;;;;;;;1.15;0.80;;;;;;;25.88;18.80;101570.84;5063391;28;20048;-83
2022/09/01 09:57:34;;;;;;;1.80;0.77;;;;;;;25.94;19.04;101567.16;5075569;28;20060;-84
2022/09/01 10:00:07;;;;;;;2.25;1.00;;;;;;;25.98;18.43;101569.31;5046932;28;20380;-82
2022/09/01 10:02:45;;;;;;;2.05;1.00;;;;;;;26.04;18.23;101566.72;5073330;28;20049;-82
2022/09/01 10:05:26;;;;;;;1.17;0.83;;;;;;;26.09;18.68;101561.31;5073243;28;20114;-82
2022/09/01 10:07:57;;;;;;;1.17;0.75;;;;;;;26.09;19.11;101559.38;5075055;28;20091;-82
2022/09/01 10:10:32;;;;;;;1.88;0.90;;;;;;;26.19;18.33;101556.13;5066282;28;20041;-81
2022/09/01 10:13:01;;;;;;;1.27;0.80;;;;;;;26.23;18.76;101543.34;5070090;28;20499;-80
2022/09/01 10:15:34;;;;;;;1.35;0.80;;;;;;;26.30;18.42;101549.81;5067048;28;20036;-83
2022/09/01 10:18:13;;;;;;;1.55;0.80;;;;;;;26.39;18.58;101549.34;5057459;28;20093;-83
2022/09/01 10:20:54;;;;;;;1.40;1.10;;;;;;;26.49;18.81;101542.38;5072901;28;20068;-81
2022/09/01 10:23:23;;;;;;;1.67;0.90;;;;;;;26.56;18.90;101540.41;5064716;28;20044;-82
2022/09/01 10:25:58;;;;;;;2.00;0.90;;;;;;;26.66;18.38;101549.25;5062302;28;20073;-82
2022/09/01 10:28:30;;;;;;;1.10;0.85;;;;;;;26.74;18.89;101561.06;5070229;28;20075;-85
2022/09/01 10:31:00;;;;;;;1.13;0.80;;;;;;;26.78;18.54;101547.47;5071890;28;20060;-84
2022/09/01 10:33:30;;;;;;;1.63;0.77;;;;;;;26.89;18.22;101546.72;5064646;28;20049;-83
2022/09/01 10:35:58;;;;;;;1.38;0.90;;;;;;;26.94;18.24;101534.81;5072871;28;20040;-84
2022/09/01 10:38:28;;;;;;;2.03;1.10;;;;;;;27.01;18.22;101542.13;5068857;28;20074;-83
2022/09/01 10:41:06;;;;;;;2.15;0.95;;;;;;;27.04;18.01;101530.41;5073385;28;20090;-84
2022/09/01 10:43:43;;;;;;;1.10;0.90;;;;;;;27.07;17.72;101535.56;5067015;28;20492;-85
2022/09/01 10:46:46;;;;;;;1.90;1.00;;;;;;;27.04;17.08;101536.00;5080418;28;20087;-83
2022/09/01 10:49:30;;;;;;;1.48;0.82;;;;;;;27.15;17.43;101534.44;5070654;28;20139;-84
2022/09/01 10:52:00;;;;;;;1.63;0.98;;;;;;;27.13;17.79;101525.34;5070694;28;20514;-84
2022/09/01 10:55:01;;;;;;;1.90;1.00;;;;;;;27.18;17.35;101519.09;5092021;28;20060;-84
2022/09/01 10:57:50;;;;;;;1.75;0.90;;;;;;;27.24;17.99;101518.19;5070528;28;20040;-85
2022/09/01 11:00:55;;;;;;;2.35;1.10;;;;;;;27.26;17.63;101528.13;5071801;28;20028;-84
2022/09/01 11:04:00;;;;;;;1.17;0.80;;;;;;;27.29;16.93;101527.63;5068115;28;20060;-84
2022/09/01 11:06:57;;;;;;;2.50;0.90;;;;;;;27.31;16.85;101518.97;5071924;28;20047;-83
2022/09/01 11:09:47;;;;;;;;;;;;;;;27.08;18.55;101522.38;5085547;28;20048;-84
2022/09/01 11:12:42;;;;;;;1.83;1.00;;;;;;;27.45;17.45;101518.63;5093574;28;19962;-83
2022/09/01 11:15:35;;;;;;;1.02;0.80;;;;;;;27.53;16.81;101520.31;5085555;28;20036;-83
2022/09/01 11:18:11;;;;;;;1.58;1.02;;;;;;;27.62;16.99;101516.09;5057600;28;20132;-84
2022/09/01 11:20:45;;;;;;;1.73;0.90;;;;;;;27.66;17.52;101514.53;5079111;28;20075;-84
2022/09/01 11:23:23;;;;;;;1.33;0.80;;;;;;;27.72;17.10;101504.34;5078432;28;20090;-84
2022/09/01 11:25:53;;;;;;;1.92;1.10;;;;;;;27.74;17.17;101499.34;5059489;28;20075;-84
2022/09/01 11:28:43;;;;;;;1.23;0.80;;;;;;;27.76;17.45;101498.03;5071661;28;20094;-83
2022/09/01 11:31:22;;;;;;;1.13;0.90;;;;;;;27.83;16.89;101496.00;5071955;28;20127;-83
2022/09/01 11:33:57;;;;;;;2.47;1.02;;;;;;;27.86;16.79;101498.31;5072433;28;20045;-83
2022/09/01 11:36:30;;;;;;;1.63;0.90;;;;;;;27.92;16.80;101507.81;5073319;28;20036;-84
2022/09/01 11:39:08;;;;;;;2.65;1.10;;;;;;;27.94;15.92;101504.75;5070608;28;20051;-84
2022/09/01 11:41:52;;;;;;;2.13;1.02;;;;;;;27.99;16.56;101500.13;5082788;28;20040;-83
2022/09/01 11:44:53;;;;;;;1.83;1.10;;;;;;;27.96;16.82;101505.38;5068995;28;20048;-83
2022/09/01 11:47:26;;;;;;;1.30;1.00;;;;;;;28.03;16.67;101492.94;5065469;28;20115;-83
2022/09/01 11:49:57;;;;;;;1.25;0.90;;;;;;;28.04;16.56;101491.84;5072025;28;20079;-83
2022/09/01 11:52:30;;;;;;;1.55;1.00;;;;;;;28.03;16.61;101492.94;5084274;28;20040;-84
2022/09/01 11:55:00;;;;;;;1.58;1.05;;;;;;;28.04;16.35;101486.22;5071066;28;20041;-83
2022/09/01 11:57:31;;;;;;;2.15;1.10;;;;;;;28.06;16.11;101489.66;5074110;28;20123;-82
2022/09/01 12:00:00;;;;;;;1.98;1.20;;;;;;;28.05;16.41;101487.94;5079839;28;20487;-83
2022/09/01 12:02:44;;;;;;;2.17;1.20;;;;;;;28.09;15.69;101483.56;5071607;28;20055;-83
2022/09/01 12:05:26;;;;;;;1.95;1.00;;;;;;;28.11;15.99;101481.34;5085721;28;20094;-82
2022/09/01 12:07:55;;;;;;;1.48;1.00;;;;;;;28.09;16.35;101483.56;5068412;28;20226;-82